Motte Rimrock Reserve, California Weather observations

Data are for 10 minute period ending at time listed.
 Day   Time   Solar   Ave.   Ave.  Ave.  Vector  Max.   Baro.   Total    
  of    of     Rad.   Air    Rel.  Wind   Wind   Wind  Press.  Precip.   
Year   Day            Temp.  Hum.  Speed  Dir.   Gust                    
2014   (PST)  Kw/m2    F      %     mph   deg.    mph    mb.     in.     
-------------------------------------------------------------------------
 205    5:20   0.02   74.8    29    2.8   192     3.3   945.4    0.00 
 205    5:30   0.04   75.1    28    2.9   173     3.4   945.3    0.00 
 205    5:40   0.07   75.3    28    1.8   165     2.3   945.4    0.00 
 205    5:50   0.10   77.0    26    2.1   223     2.4   945.4    0.00 
 205    6:00   0.13   77.8    26    1.3   213     2.1   945.5    0.00 
 205    6:10   0.16   77.7    27    3.4    75     4.7   945.7    0.00 
 205    6:20   0.19   76.0    30    3.6    27     5.0   945.8    0.00 
 205    6:30   0.22   76.3    29    3.5   334     4.6   945.7    0.00 
 205    6:40   0.26   78.6    28    3.0    61     4.9   945.8    0.00 
 205    6:50   0.29   78.3    28    3.7    72     4.8   945.9    0.00 
 205    7:00   0.33   80.2    26    0.6    44     2.8   945.9    0.00 
 205    7:10   0.36   83.2    22    1.2   112     3.2   945.9    0.00 
 205    7:20   0.40   84.1    22    1.6   113     2.9   945.8    0.00 
 205    7:30   0.43   84.3    22    1.8   159     4.2   945.7    0.00 
 205    7:40   0.47   85.5    20    1.9   157     3.8   945.6    0.00 
 205    7:50   0.50   86.9    19    0.8   197     2.6   945.5    0.00 
 205    8:00   0.53   87.2    19    0.9   267     2.3   945.5    0.00 
 205    8:10   0.57   88.6    18    1.1   250     2.3   945.3    0.00 
 205    8:20   0.60   88.7    18    3.4    86     6.6   945.2    0.00 
 205    8:30   0.62   87.4    19    2.4    47     5.4   945.1    0.00 
 205    8:40   0.66   89.2    17    1.8   341     4.2   945.0    0.00 
 205    8:50   0.69   91.1    16    1.8    36     5.6   945.0    0.00 
 205    9:00   0.71   91.7    15    4.2    64     7.5   945.0    0.00 
 205    9:10   0.74   92.0    15    2.7    54     7.2   945.0    0.00 
 205    9:20   0.77   92.7    14    2.5    93     5.8   945.0    0.00 
 205    9:30   0.79   94.2    13    3.1    24     7.4   945.0    0.00 
 205    9:40   0.81   93.9    13    4.7    73     7.6   944.9    0.00 
 205    9:50   0.83   94.7    12    4.8    87     7.5   944.8    0.00 
 205   10:00   0.85   95.1    12    3.9    78     7.0   944.7    0.00 
 205   10:10   0.86   96.4    11    4.4    97     8.0   944.7    0.00 
 205   10:20   0.89   96.5    11    3.6    88     8.4   944.7    0.00 
 205   10:30   0.90   97.3    10    2.6    26     5.6   944.6    0.00 
 205   10:40   0.92   97.9    10    3.4    22     7.3   944.6    0.00 
 205   10:50   0.93   99.9    10    3.0   330     6.2   944.6    0.00 
 205   11:00   0.94   99.6    10    3.7   288     5.9   944.6    0.00 
 205   11:10   0.95  100.0     9    3.7    17     7.2   944.5    0.00 
 205   11:20   0.96  100.9     9    3.0   337     8.2   944.5    0.00 
 205   11:30   0.96  100.9     9    5.9   318    12.0   944.4    0.00 
 205   11:40   0.96  100.9     9    5.6   326    13.5   944.3    0.00 
 205   11:50   0.96  101.2    10    8.2   305    16.1   944.3    0.00 
 205   12:00   0.96  101.0    10    9.8   298    14.2   944.2    0.00 
 205   12:10   0.96  101.1    10    8.7   303    14.1   944.2    0.00 
 205   12:20   0.96  101.4    10   10.1   312    15.0   944.0    0.00 
 205   12:30   0.96  101.0    10    9.4   313    14.2   943.9    0.00 
 205   12:40   0.95  101.7    10   10.3   316    15.6   943.8    0.00 
 205   12:50   0.94  101.6    10    9.6   302    14.4   943.7    0.00 
 205   13:00   0.93  101.8    10    9.9   309    15.3   943.7    0.00 
 205   13:10   0.89  102.0    11   12.4   313    17.5   943.6    0.00 
 205   13:20   0.91  102.2    10   12.0   323    18.6   943.5    0.00 
 205   13:30   0.90  102.3    10   11.4   304    15.7   943.5    0.00 
 205   13:40   0.88  102.4    10   12.3   307    16.4   943.5    0.00 
 205   13:50   0.86  103.1     9   11.2   308    17.0   943.4    0.00 
 205   14:00   0.84  102.9     9   12.1   300    17.9   943.3    0.00 
 205   14:10   0.82  103.2    10   11.8   301    16.4   943.2    0.00 
 205   14:20   0.80  102.7    10   12.4   290    19.0   943.0    0.00 
 205   14:30   0.78  103.1    11   11.4   301    17.3   943.0    0.00 
 205   14:40   0.76  103.0    12   11.4   307    16.7   942.9    0.00 
 205   14:50   0.73  102.7    12   14.0   313    18.6   942.7    0.00 
 205   15:00   0.70  102.4    12   15.2   298    20.0   942.6    0.00 
 205   15:10   0.68  102.6    12   14.2   295    18.9   942.4    0.00 
 205   15:20   0.65  102.0    13   15.6   295    20.5   942.3    0.00 
 205   15:30   0.61  101.2    14   16.1   293    21.0   942.1    0.00 
 205   15:40   0.58  100.9    14   16.3   291    20.5   942.0    0.00 
 205   15:50   0.55  100.7    14   15.0   294    19.2   942.0    0.00 
 205   16:00   0.52  100.4    14   14.9   296    19.6   941.9    0.00 
 205   16:10   0.49   99.5    14   16.5   292    20.2   941.8    0.00 
 205   16:20   0.46   98.8    14   16.6   305    20.5   941.7    0.00 
 205   16:30   0.42   98.5    12   17.5   305    22.7   941.6    0.00 
 205   16:40   0.39   98.2    12   16.6   305    20.4   941.5    0.00 
 205   16:50   0.36   97.4    13   16.7   302    21.9   941.4    0.00 
 205   17:00   0.33   96.8    14   17.4   298    21.4   941.4    0.00 
 205   17:10   0.29   95.9    15   17.1   304    21.9   941.3    0.00 
 205   17:20   0.26   95.3    15   17.4   308    23.5   941.3    0.00 
 205   17:30   0.23   94.3    15   17.4   304    21.9   941.3    0.00 
 205   17:40   0.20   94.0    16   16.6   307    20.5   941.3    0.00 
 205   17:50   0.16   93.3    16   16.9   309    20.7   941.4    0.00 
 205   18:00   0.13   93.0    15   17.3   312    20.7   941.3    0.00 
 205   18:10   0.11   92.4    14   17.0   311    20.7   941.4    0.00 
 205   18:20   0.08   91.6    16   15.5   309    19.2   941.5    0.00 
 205   18:30   0.06   91.0    16   13.9   311    18.3   941.7    0.00 
 205   18:40   0.04   90.2    15   15.8   312    20.0   941.8    0.00 
 205   18:50   0.02   89.3    14   14.5   303    18.6   942.0    0.00 
 205   19:00   0.01   88.6    16   11.8   294    17.8   942.1    0.00 
 205   19:10   0.01   87.9    17   12.6   299    17.0   942.1    0.00 
 205   19:20   0.01   87.2    17   14.1   300    17.4   942.2    0.00 
 205   19:30   0.00   86.5    19   14.3   301    17.4   942.4    0.00 
 205   19:40   0.00   85.9    21   13.1   304    16.7   942.7    0.00 
 205   19:50   0.00   85.4    22   14.0   306    17.0   942.8    0.00 
 205   20:00   0.00   84.9    23   12.9   307    15.6   943.0    0.00 
 205   20:10   0.00   84.5    23   11.2   307    14.0   943.2    0.00 
 205   20:20   0.00   84.1    24   10.0   312    12.3   943.5    0.00 
 205   20:30   0.00   83.8    24    9.9   311    11.9   943.6    0.00 
 205   20:40   0.00   83.9    23   10.2   306    13.0   943.6    0.00 
 205   20:50   0.00   83.7    22    9.5   310    11.8   943.7    0.00 
 205   21:00   0.00   83.4    22    9.3   311    10.7   943.8    0.00 
 205   21:10   0.00   82.8    22    9.3   315    10.7   943.8    0.00 
 205   21:20   0.00   82.0    24    8.4   316    10.3   943.9    0.00 
 205   21:30   0.00   81.5    25    7.8   316     9.4   944.1    0.00 
 205   21:40   0.00   81.0    26    7.5   314     9.9   944.1    0.00 
 205   21:50   0.00   80.2    28    8.9   314    11.2   944.2    0.00 
 205   22:00   0.00   80.1    29    9.6   310    12.1   944.3    0.00 
 205   22:10   0.00   80.0    29    8.4   307    10.7   944.4    0.00 
 205   22:20   0.00   80.0    28    7.3   299     9.5   944.5    0.00 
 205   22:30   0.00   78.8    30    5.8   290     8.0   944.6    0.00 
 205   22:40   0.00   78.6    31    6.3   302     7.7   944.7    0.00 
 205   22:50   0.00   79.0    30    5.3   317     7.0   944.8    0.00 
 205   23:00   0.00   79.1    29    3.1   336     5.5   944.9    0.00 
 205   23:10   0.00   79.2    29    3.4   124     6.1   944.9    0.00 
 205   23:20   0.00   78.3    33    3.1   128     4.7   945.0    0.00 
 205   23:30   0.00   78.0    39    1.9   124     3.0   944.9    0.00 
 205   23:40   0.00   77.8    42    2.6   124     3.1   945.0    0.00 
 205   23:50   0.00   77.0    45    3.1   141     3.7   945.1    0.00 
 206    0:00   0.00   76.2    46    2.6   151     3.9   945.2    0.00 
 206    0:10   0.00   75.8    46    2.9   162     3.4   945.2    0.00 
 206    0:20   0.00   75.5    45    1.8   147     3.2   945.1    0.00 
 206    0:30   0.00   74.9    49    2.3   121     3.6   945.1    0.00 
 206    0:40   0.00   74.2    51    1.2   111     2.6   945.1    0.00 
 206    0:50   0.00   73.5    53    3.1   139     5.6   945.1    0.00 
 206    1:00   0.00   72.9    56    2.3   170     3.4   945.1    0.00 
 206    1:10   0.00   72.6    56    2.8   145     3.9   945.1    0.00 
 206    1:20   0.00   72.0    57    3.8   142     5.2   945.1    0.00 
 206    1:30   0.00   71.3    59    5.0   147     6.9   945.1    0.00 
 206    1:40   0.00   71.1    60    3.8   154     4.8   945.1    0.00 
 206    1:50   0.00   70.8    61    4.7   143     7.2   945.1    0.00 
 206    2:00   0.00   70.3    62    5.9   135     7.3   945.1    0.00 
 206    2:10   0.00   70.2    62    4.8   151     6.2   945.0    0.00 
 206    2:20   0.00   69.9    62    5.0   154     6.1   944.9    0.00 
 206    2:30   0.00   69.7    63    5.0   141     6.4   945.0    0.00 
 206    2:40   0.00   69.4    64    5.6   125     6.9   945.0    0.00 
 206    2:50   0.00   68.9    66    4.2   137     5.7   944.9    0.00 
 206    3:00   0.00   68.5    66    4.2   137     6.1   944.9    0.00 
 206    3:10   0.00   68.5    67    4.1   127     7.1   944.9    0.00 
 206    3:20   0.00   68.2    68    3.3   137     4.8   945.0    0.00 
 206    3:30   0.00   68.0    68    2.4   167     3.3   945.1    0.00 
 206    3:40   0.00   68.0    68    2.2   196     2.7   945.1    0.00 
 206    3:50   0.00   68.0    68    2.0   201     2.5   945.0    0.00 
 206    4:00   0.00   68.1    68    1.5   203     2.2   945.1    0.00 
 206    4:10   0.00   68.1    68    1.9   267     2.7   945.2    0.00 
 206    4:20   0.00   68.2    68    2.6   297     3.4   945.2    0.00 
 206    4:30   0.00   68.7    65    2.2    31     3.5   945.3    0.00 
 206    4:40   0.00   68.8    66    1.5    71     2.0   945.4    0.00 
 206    4:50   0.00   68.9    65    1.5    67     2.0   945.4    0.00 
 206    5:00   0.00   69.0    65    1.1    61     1.9   945.4    0.00 
 206    5:10   0.00   68.9    65    1.8   109     3.0   945.5    0.00 

Return to Motte Rimrock Reserve graphs page.


Western Regional Climate Center,wrcc@dri.edu